Time;durP1;ratioP1;P1;durP2;ratioP2;P2;SDS_P1;SDS_P2;PMS_P1;PMS_P2;Temp;Humidity;BMP_temperature;BMP_pressure;BME280_temperature;BME280_humidity;BME280_pressure;Samples;Min_cycle;Max_cycle;Signal;HPM_P1;HPM_P2
2023/05/20 00:00:51;;;;;;;4.73;2.60;;;14.70;90.30;;;;;;5134731;27;20188;-82
2023/05/20 00:03:19;;;;;;;5.80;2.73;;;14.60;90.20;;;;;;5144136;27;20207;-80
2023/05/20 00:05:45;;;;;;;3.83;2.63;;;14.60;90.80;;;;;;5144361;27;20428;-82
2023/05/20 00:08:10;;;;;;;4.60;3.50;;;14.60;91.30;;;;;;5137976;27;20437;-81
2023/05/20 00:10:36;;;;;;;5.77;3.20;;;14.50;91.90;;;;;;5139761;27;20503;-82
2023/05/20 00:13:02;;;;;;;3.97;2.80;;;14.50;92.40;;;;;;5132794;27;20176;-81
2023/05/20 00:15:28;;;;;;;4.90;3.37;;;14.50;92.70;;;;;;5137760;27;20773;-81
2023/05/20 00:17:54;;;;;;;4.63;2.80;;;14.50;93.10;;;;;;5137186;27;20482;-81
2023/05/20 00:20:19;;;;;;;5.50;2.70;;;14.50;93.40;;;;;;5145103;27;20179;-82
2023/05/20 00:22:45;;;;;;;3.30;2.67;;;14.40;93.80;;;;;;5138777;27;20525;-81
2023/05/20 00:25:13;;;;;;;4.77;3.03;;;14.40;94.70;;;;;;5134086;27;20196;-80
2023/05/20 00:27:39;;;;;;;4.30;3.03;;;14.30;94.90;;;;;;5117337;28;20287;-80
2023/05/20 00:30:05;;;;;;;4.37;2.63;;;14.30;95.30;;;;;;5120785;28;20532;-81
2023/05/20 00:32:31;;;;;;;5.63;2.77;;;14.30;95.80;;;;;;5132998;28;20434;-79
2023/05/20 00:34:57;;;;;;;7.90;3.13;;;14.20;96.50;;;;;;5134547;28;20473;-81
2023/05/20 00:37:23;;;;;;;6.33;3.27;;;14.20;97.50;;;;;;5137782;28;20180;-81
2023/05/20 00:39:49;;;;;;;4.17;2.80;;;14.20;97.80;;;;;;5132462;28;20422;-80
2023/05/20 00:42:25;;;;;;;4.97;2.73;;;14.10;98.10;;;;;;5137723;28;20527;-81
2023/05/20 00:44:51;;;;;;;4.97;3.07;;;14.10;98.90;;;;;;5137204;28;20206;-81
2023/05/20 00:47:18;;;;;;;4.03;2.90;;;14.00;99.50;;;;;;5119528;28;20479;-81
2023/05/20 00:49:44;;;;;;;4.47;3.33;;;14.00;99.90;;;;;;5142714;28;20433;-81
2023/05/20 00:52:11;;;;;;;4.87;3.30;;;14.00;99.90;;;;;;5143156;28;20921;-81
2023/05/20 00:54:36;;;;;;;4.27;3.50;;;13.90;99.90;;;;;;5140717;28;20487;-80
2023/05/20 00:57:05;;;;;;;5.07;3.60;;;13.90;99.90;;;;;;5125132;27;20436;-80
2023/05/20 00:59:30;;;;;;;5.77;3.83;;;13.80;99.90;;;;;;5123905;27;20227;-81
2023/05/20 01:01:56;;;;;;;5.80;4.93;;;13.80;99.90;;;;;;5136548;27;20433;-80
2023/05/20 01:04:22;;;;;;;7.10;3.13;;;13.80;99.90;;;;;;5146630;27;20302;-79
2023/05/20 01:06:48;;;;;;;7.97;3.80;;;13.80;99.90;;;;;;5145540;27;20180;-81
2023/05/20 01:09:14;;;;;;;3.30;2.60;;;13.70;99.90;;;;;;5125906;27;20242;-81
2023/05/20 01:11:49;;;;;;;4.17;2.97;;;13.70;99.90;;;;;;5148443;27;20444;-81
2023/05/20 01:14:17;;;;;;;6.63;2.80;;;13.70;99.90;;;;;;5144021;27;20684;-80
2023/05/20 01:16:46;;;;;;;11.80;3.60;;;13.70;99.90;;;;;;5139976;27;20437;-80
2023/05/20 01:19:34;;;;;;;4.10;3.47;;;13.70;99.90;;;;;;5139613;27;20441;-77
2023/05/20 01:22:02;;;;;;;4.67;3.67;;;13.70;99.90;;;;;;5140228;27;20450;-81
2023/05/20 01:24:27;;;;;;;4.93;3.03;;;13.70;99.90;;;;;;5146974;27;20461;-80
2023/05/20 01:26:53;;;;;;;10.77;3.50;;;13.60;99.90;;;;;;5145335;27;20449;-81
2023/05/20 01:29:18;;;;;;;6.33;3.30;;;13.60;99.90;;;;;;5140915;27;20199;-82
2023/05/20 01:31:46;;;;;;;6.27;3.47;;;13.60;99.90;;;;;;5144930;27;20195;-82
2023/05/20 01:34:12;;;;;;;8.70;3.57;;;13.50;99.90;;;;;;5144656;27;20211;-81
2023/05/20 01:36:39;;;;;;;5.00;3.07;;;13.50;99.90;;;;;;5142357;27;20470;-80
2023/05/20 01:39:05;;;;;;;4.63;3.00;;;13.50;99.90;;;;;;5137867;27;20428;-82
2023/05/20 01:41:33;;;;;;;3.83;3.10;;;13.50;99.90;;;;;;5119961;27;20432;-82
2023/05/20 01:43:59;;;;;;;5.50;3.00;;;13.50;99.90;;;;;;5133207;27;20457;-80
2023/05/20 01:46:25;;;;;;;4.43;3.40;;;13.50;99.90;;;;;;5123930;27;20974;-81
2023/05/20 01:48:50;;;;;;;4.80;3.43;;;13.40;99.90;;;;;;5139413;27;20449;-80
2023/05/20 01:51:16;;;;;;;4.00;3.57;;;13.40;99.90;;;;;;5135326;27;20207;-82
2023/05/20 01:53:42;;;;;;;5.30;3.60;;;13.40;99.90;;;;;;5138860;27;20202;-79
2023/05/20 01:56:07;;;;;;;5.10;3.43;;;13.40;99.90;;;;;;5145924;27;20210;-81
2023/05/20 01:58:33;;;;;;;8.20;3.37;;;13.40;99.90;;;;;;5146437;27;20179;-81
2023/05/20 02:00:59;;;;;;;6.83;3.90;;;13.40;99.90;;;;;;5142499;27;20186;-82
2023/05/20 02:03:24;;;;;;;4.73;3.70;;;13.30;99.90;;;;;;5137439;27;20247;-81
2023/05/20 02:05:50;;;;;;;7.37;4.50;;;13.30;99.90;;;;;;5127698;27;20231;-81
2023/05/20 02:08:15;;;;;;;10.30;3.80;;;13.30;99.90;;;;;;5133073;27;20609;-82
2023/05/20 02:10:41;;;;;;;7.33;3.93;;;13.20;99.90;;;;;;5135768;27;20200;-80
2023/05/20 02:13:06;;;;;;;6.50;4.00;;;13.20;99.90;;;;;;5146870;27;20715;-80
2023/05/20 02:15:32;;;;;;;6.70;3.63;;;13.20;99.90;;;;;;5138222;27;20233;-82
2023/05/20 02:17:57;;;;;;;6.93;3.93;;;13.10;99.90;;;;;;5131324;27;20179;-82
2023/05/20 02:20:23;;;;;;;5.33;3.67;;;13.10;99.90;;;;;;5131980;27;20274;-79
2023/05/20 02:22:48;;;;;;;4.87;3.53;;;13.10;99.90;;;;;;5143432;27;20259;-81
2023/05/20 02:25:14;;;;;;;5.20;3.90;;;13.00;99.90;;;;;;5139021;27;20275;-79
2023/05/20 02:27:39;;;;;;;5.93;3.60;;;13.00;99.90;;;;;;5144681;27;20175;-81
2023/05/20 02:30:07;;;;;;;4.83;3.60;;;13.00;99.90;;;;;;5142377;27;20212;-80
2023/05/20 02:32:32;;;;;;;5.53;4.07;;;13.00;99.90;;;;;;5122561;27;20277;-82
2023/05/20 02:34:58;;;;;;;7.13;4.33;;;12.90;99.90;;;;;;5142334;27;20461;-80
2023/05/20 02:37:23;;;;;;;7.73;4.57;;;12.90;99.90;;;;;;5145962;27;20228;-81
2023/05/20 02:39:49;;;;;;;5.47;3.60;;;12.90;99.90;;;;;;5143593;27;20175;-81
2023/05/20 02:42:14;;;;;;;4.73;4.10;;;12.90;99.90;;;;;;5142574;27;20175;-82
2023/05/20 02:44:40;;;;;;;10.23;4.37;;;12.80;99.90;;;;;;5121465;27;20199;-81
2023/05/20 02:47:06;;;;;;;6.53;4.13;;;12.80;99.90;;;;;;5143409;27;20200;-79
2023/05/20 02:49:31;;;;;;;7.40;4.43;;;12.80;99.90;;;;;;5143345;27;20574;-82
2023/05/20 02:51:57;;;;;;;8.40;4.70;;;12.70;99.90;;;;;;5141928;27;20715;-82
2023/05/20 02:54:22;;;;;;;7.00;4.30;;;12.80;99.90;;;;;;5143431;27;20210;-82
2023/05/20 02:56:48;;;;;;;6.00;5.20;;;12.70;99.90;;;;;;5138286;27;20547;-79
2023/05/20 02:59:13;;;;;;;8.10;4.03;;;12.70;99.90;;;;;;5145365;27;20191;-81
2023/05/20 03:01:39;;;;;;;10.47;5.00;;;12.70;99.90;;;;;;5135580;27;20175;-81
2023/05/20 03:04:04;;;;;;;8.07;4.57;;;12.60;99.90;;;;;;5138926;27;20194;-81
2023/05/20 03:06:33;;;;;;;5.20;3.77;;;12.60;99.90;;;;;;5125239;27;20235;-80
2023/05/20 03:08:59;;;;;;;9.77;4.60;;;12.50;99.90;;;;;;5141811;27;20270;-80
2023/05/20 03:11:25;;;;;;;5.70;4.10;;;12.50;99.90;;;;;;5147031;27;20428;-78
2023/05/20 03:13:50;;;;;;;8.20;3.80;;;12.50;99.90;;;;;;5135263;27;20235;-82
2023/05/20 03:16:16;;;;;;;5.63;4.20;;;12.50;99.90;;;;;;5136493;27;20494;-80
2023/05/20 03:18:41;;;;;;;4.80;4.00;;;12.50;99.90;;;;;;5140138;27;20300;-80
2023/05/20 03:21:07;;;;;;;4.87;3.90;;;12.50;99.90;;;;;;5124855;27;20183;-79
2023/05/20 03:23:33;;;;;;;8.23;4.50;;;12.50;99.90;;;;;;5146055;27;20210;-82
2023/05/20 03:25:59;;;;;;;7.83;4.50;;;12.50;99.90;;;;;;5144177;27;20855;-81
2023/05/20 03:28:25;;;;;;;6.70;4.43;;;12.40;99.90;;;;;;5120544;28;20449;-81
2023/05/20 03:30:50;;;;;;;5.30;4.10;;;12.40;99.90;;;;;;5141564;27;20179;-81
2023/05/20 03:33:16;;;;;;;6.20;3.80;;;12.40;99.90;;;;;;5133632;27;20432;-80
2023/05/20 03:35:41;;;;;;;8.17;4.30;;;12.40;99.90;;;;;;5140212;27;20194;-81
2023/05/20 03:38:07;;;;;;;5.27;3.90;;;12.40;99.90;;;;;;5138468;27;20175;-82
2023/05/20 03:40:32;;;;;;;11.13;4.17;;;12.40;99.90;;;;;;5123688;27;20429;-81
2023/05/20 03:42:58;;;;;;;6.80;4.27;;;12.40;99.90;;;;;;5141946;27;20186;-80
2023/05/20 03:45:23;;;;;;;8.53;4.27;;;12.40;99.90;;;;;;5120082;28;20215;-82
2023/05/20 03:47:49;;;;;;;8.60;4.80;;;12.40;99.90;;;;;;5130624;27;20191;-81
2023/05/20 03:50:15;;;;;;;5.10;4.60;;;12.40;99.90;;;;;;5135599;27;20183;-80
2023/05/20 03:52:40;;;;;;;5.80;4.30;;;12.40;99.90;;;;;;5109671;28;20197;-80
2023/05/20 03:55:06;;;;;;;6.63;4.77;;;12.40;99.90;;;;;;5132016;27;20251;-82
2023/05/20 03:57:32;;;;;;;8.50;5.20;;;12.40;99.90;;;;;;5143352;27;20376;-81
2023/05/20 03:59:58;;;;;;;9.10;4.83;;;12.40;99.90;;;;;;5139684;27;20931;-81
2023/05/20 04:02:23;;;;;;;7.10;4.77;;;12.40;99.90;;;;;;5125856;27;20440;-80
2023/05/20 04:04:51;;;;;;;10.13;4.83;;;12.40;99.90;;;;;;5131534;27;20211;-80
2023/05/20 04:07:17;;;;;;;8.93;4.80;;;12.50;99.90;;;;;;5113648;27;20178;-78
2023/05/20 04:09:43;;;;;;;8.87;5.20;;;12.40;99.90;;;;;;5137602;27;20433;-82
2023/05/20 04:12:08;;;;;;;6.17;4.63;;;12.40;99.90;;;;;;5136428;27;20421;-79
2023/05/20 04:14:34;;;;;;;8.00;5.83;;;12.40;99.90;;;;;;5141693;27;20266;-80
2023/05/20 04:17:04;;;;;;;10.40;5.67;;;12.50;99.90;;;;;;5139738;27;20666;-81
2023/05/20 04:19:30;;;;;;;5.87;5.00;;;12.50;99.90;;;;;;5139517;27;20179;-79
2023/05/20 04:21:56;;;;;;;7.23;4.93;;;12.50;99.90;;;;;;5138575;27;20844;-81
2023/05/20 04:24:24;;;;;;;5.23;4.03;;;12.60;99.90;;;;;;5127263;28;21150;-81
2023/05/20 04:26:52;;;;;;;6.43;4.30;;;12.60;99.90;;;;;;5131678;27;20179;-82
2023/05/20 04:29:18;;;;;;;7.20;4.70;;;12.70;99.90;;;;;;5128477;27;20419;-82
2023/05/20 04:31:47;;;;;;;7.53;4.70;;;12.80;99.90;;;;;;5135928;27;20452;-79
2023/05/20 04:34:13;;;;;;;5.43;3.77;;;12.80;99.90;;;;;;5144075;27;20271;-81
2023/05/20 04:36:39;;;;;;;8.53;4.60;;;12.90;99.90;;;;;;5145756;28;20464;-83
2023/05/20 04:39:06;;;;;;;6.10;4.30;;;12.90;99.90;;;;;;5136761;28;20428;-80
2023/05/20 04:41:32;;;;;;;7.27;4.03;;;13.00;99.90;;;;;;5141692;28;20175;-81
2023/05/20 04:43:59;;;;;;;5.63;3.93;;;13.10;99.90;;;;;;5140859;28;20464;-82
2023/05/20 04:46:25;;;;;;;5.40;3.80;;;13.20;99.90;;;;;;5137078;28;20183;-82
2023/05/20 04:48:50;;;;;;;7.43;4.17;;;13.30;99.90;;;;;;5143719;28;20546;-81
2023/05/20 04:51:16;;;;;;;5.67;3.70;;;13.40;99.90;;;;;;5135383;28;20932;-82
2023/05/20 04:53:43;;;;;;;7.20;3.60;;;13.50;99.90;;;;;;5139982;28;20205;-82
2023/05/20 04:56:09;;;;;;;8.13;4.53;;;13.60;99.90;;;;;;5136894;28;20484;-82
2023/05/20 04:58:35;;;;;;;4.73;3.53;;;13.70;99.90;;;;;;5137014;28;20428;-83
2023/05/20 05:01:01;;;;;;;6.07;3.93;;;13.80;99.90;;;;;;5118719;27;20180;-82
2023/05/20 05:03:26;;;;;;;4.60;3.97;;;13.90;99.90;;;;;;5136158;28;20179;-82
2023/05/20 05:05:55;;;;;;;7.93;4.43;;;14.00;99.90;;;;;;5140071;28;20440;-83
2023/05/20 05:08:23;;;;;;;5.67;3.50;;;14.10;99.90;;;;;;5144332;28;20227;-82
2023/05/20 05:10:49;;;;;;;4.87;3.13;;;14.20;99.90;;;;;;5143348;28;20440;-83
2023/05/20 05:13:14;;;;;;;4.90;3.20;;;14.30;99.90;;;;;;5137123;28;20439;-80
2023/05/20 05:15:40;;;;;;;6.13;4.00;;;14.50;99.90;;;;;;5143137;28;20214;-84
2023/05/20 05:18:06;;;;;;;4.73;3.87;;;14.60;99.90;;;;;;5144048;28;20173;-82
2023/05/20 05:20:31;;;;;;;5.10;3.27;;;14.80;99.90;;;;;;5147374;28;20341;-82
2023/05/20 05:22:57;;;;;;;6.07;3.70;;;14.90;99.90;;;;;;5141216;28;20550;-83
2023/05/20 05:25:22;;;;;;;4.13;3.40;;;14.90;99.90;;;;;;5141429;28;20216;-81
2023/05/20 05:27:49;;;;;;;5.07;3.47;;;15.10;99.90;;;;;;5145824;28;20208;-82
2023/05/20 05:30:15;;;;;;;4.73;3.83;;;15.20;99.90;;;;;;5139812;28;20277;-81
2023/05/20 05:32:40;;;;;;;9.50;4.07;;;15.30;99.90;;;;;;5145396;28;20450;-81
2023/05/20 05:35:06;;;;;;;4.93;3.13;;;15.50;99.90;;;;;;5141914;28;20860;-82
2023/05/20 05:37:32;;;;;;;5.27;3.73;;;15.70;99.90;;;;;;5141880;28;20197;-83
2023/05/20 05:39:57;;;;;;;5.70;4.20;;;16.00;99.90;;;;;;5137316;28;20208;-83
2023/05/20 05:42:23;;;;;;;5.20;4.00;;;16.20;99.90;;;;;;5144345;27;20191;-82
2023/05/20 05:44:48;;;;;;;4.13;3.50;;;16.40;99.90;;;;;;5144923;27;20310;-81
2023/05/20 05:47:14;;;;;;;4.90;3.73;;;16.80;99.90;;;;;;5146611;27;20204;-83
2023/05/20 05:49:39;;;;;;;4.17;3.07;;;17.10;99.90;;;;;;5146020;27;20195;-83
2023/05/20 05:52:05;;;;;;;8.87;3.40;;;17.90;99.90;;;;;;5146973;27;20193;-80
2023/05/20 05:54:31;;;;;;;6.80;3.20;;;19.70;99.90;;;;;;5144951;27;20212;-82
2023/05/20 05:56:56;;;;;;;5.20;3.57;;;22.30;99.90;;;;;;5150039;27;20187;-84
2023/05/20 05:59:22;;;;;;;8.30;3.30;;;24.50;99.90;;;;;;5146932;27;20194;-84
2023/05/20 06:01:48;;;;;;;6.50;3.97;;;26.70;99.90;;;;;;5138497;27;20202;-82
2023/05/20 06:04:13;;;;;;;4.10;3.10;;;28.60;99.90;;;;;;5144247;27;20258;-83
2023/05/20 06:06:40;;;;;;;3.90;2.93;;;30.40;99.90;;;;;;5136772;27;20188;-79
2023/05/20 06:09:15;;;;;;;7.60;3.37;;;32.00;99.90;;;;;;5142886;27;20179;-80
2023/05/20 06:11:41;;;;;;;2.43;2.10;;;33.50;99.90;;;;;;5136537;27;20442;-81
2023/05/20 06:14:06;;;;;;;4.03;3.20;;;33.50;99.90;;;;;;5137431;27;20452;-80
2023/05/20 06:16:32;;;;;;;4.13;2.40;;;34.50;99.90;;;;;;5118708;27;20460;-81
2023/05/20 06:18:57;;;;;;;4.63;3.10;;;34.90;99.90;;;;;;5107677;28;20201;-81
2023/05/20 06:21:23;;;;;;;5.40;2.87;;;35.50;99.90;;;;;;5126925;27;20195;-81
2023/05/20 06:23:48;;;;;;;3.60;2.83;;;36.10;99.90;;;;;;5117459;27;20199;-82
2023/05/20 06:26:14;;;;;;;5.00;2.73;;;37.30;99.90;;;;;;5139081;27;20199;-82
2023/05/20 06:28:40;;;;;;;4.33;2.80;;;38.40;99.90;;;;;;5141323;27;20272;-84
2023/05/20 06:31:05;;;;;;;4.43;3.10;;;39.50;98.70;;;;;;5141667;27;20529;-82
2023/05/20 06:33:31;;;;;;;3.53;2.70;;;41.00;96.50;;;;;;5144857;27;20199;-82
2023/05/20 06:35:57;;;;;;;4.93;2.50;;;42.00;92.30;;;;;;5141371;27;20203;-81
2023/05/20 06:38:23;;;;;;;3.03;2.37;;;42.80;87.70;;;;;;5137011;27;20175;-81
2023/05/20 06:40:49;;;;;;;3.40;2.30;;;43.70;81.60;;;;;;5133153;27;20432;-80
2023/05/20 06:43:16;;;;;;;4.60;2.53;;;45.00;76.30;;;;;;5141077;27;20217;-80
2023/05/20 06:45:42;;;;;;;3.63;2.53;;;46.20;70.80;;;;;;5140691;27;20903;-80
2023/05/20 06:48:07;;;;;;;3.00;2.40;;;47.10;65.30;;;;;;5138080;27;20839;-80
2023/05/20 06:50:33;;;;;;;4.33;2.27;;;47.80;58.60;;;;;;5111361;27;20472;-81
2023/05/20 06:53:00;;;;;;;6.73;2.20;;;48.50;55.00;;;;;;5133127;27;20171;-79
2023/05/20 06:55:25;;;;;;;2.90;2.43;;;49.30;52.80;;;;;;5136318;27;20688;-80
2023/05/20 06:57:50;;;;;;;2.27;2.07;;;49.50;47.90;;;;;;5135438;27;20441;-80
2023/05/20 07:00:16;;;;;;;3.23;2.33;;;48.80;41.60;;;;;;5131983;27;20235;-81
2023/05/20 07:02:42;;;;;;;4.80;2.17;;;48.70;38.50;;;;;;5138472;27;20199;-81
2023/05/20 07:05:08;;;;;;;4.20;2.70;;;48.60;35.20;;;;;;5127141;27;20202;-81
2023/05/20 07:07:34;;;;;;;3.40;2.53;;;47.90;31.80;;;;;;5114591;27;20519;-81
2023/05/20 07:10:00;;;;;;;3.20;2.40;;;47.30;28.90;;;;;;5137548;27;20437;-80
2023/05/20 07:12:25;;;;;;;2.50;2.30;;;43.50;21.90;;;;;;5136986;27;20183;-81
2023/05/20 07:14:51;;;;;;;4.33;2.43;;;40.50;17.30;;;;;;5136838;27;20214;-81
2023/05/20 07:17:16;;;;;;;2.53;2.33;;;38.30;15.60;;;;;;5137365;27;20216;-78
2023/05/20 07:19:44;;;;;;;5.10;3.23;;;37.10;14.20;;;;;;5143510;27;20231;-82
2023/05/20 07:22:10;;;;;;;3.77;2.40;;;36.30;13.80;;;;;;5133751;27;20179;-82
2023/05/20 07:24:37;;;;;;;3.40;2.90;;;35.70;14.20;;;;;;5134432;27;20449;-81
2023/05/20 07:27:02;;;;;;;4.03;2.70;;;36.80;18.40;;;;;;5116938;27;20561;-82
2023/05/20 07:29:28;;;;;;;4.73;2.60;;;37.10;19.30;;;;;;5139609;27;20430;-83
2023/05/20 07:31:53;;;;;;;3.30;2.30;;;39.50;24.80;;;;;;5136733;27;20187;-82
2023/05/20 07:34:19;;;;;;;4.33;2.73;;;38.50;22.50;;;;;;5137567;27;20196;-82
2023/05/20 07:36:45;;;;;;;4.47;2.60;;;37.40;20.40;;;;;;5121781;27;20178;-81
2023/05/20 07:39:10;;;;;;;4.10;2.20;;;38.20;22.70;;;;;;5125967;27;20190;-82
2023/05/20 07:41:39;;;;;;;5.43;3.20;;;36.40;18.10;;;;;;5146419;27;20206;-82
2023/05/20 07:44:07;;;;;;;3.10;2.80;;;35.10;16.00;;;;;;5118996;27;20211;-81
2023/05/20 07:46:33;;;;;;;4.30;3.70;;;33.30;13.40;;;;;;5123866;28;20471;-81
2023/05/20 07:48:59;;;;;;;5.93;3.67;;;31.80;12.20;;;;;;5117498;28;20444;-81
2023/05/20 07:51:26;;;;;;;3.50;2.90;;;31.60;13.30;;;;;;5133754;27;20432;-81
2023/05/20 07:53:52;;;;;;;3.13;2.70;;;31.30;15.00;;;;;;5121203;27;20306;-81
2023/05/20 07:56:17;;;;;;;8.53;3.73;;;31.10;16.30;;;;;;5119782;27;20444;-81
2023/05/20 07:58:51;;;;;;;3.70;2.90;;;30.50;15.50;;;;;;5125235;27;20183;-82
2023/05/20 08:01:17;;;;;;;7.00;3.90;;;30.00;15.60;;;;;;5134677;27;20180;-81
2023/05/20 08:03:42;;;;;;;3.90;3.40;;;29.90;17.10;;;;;;5135035;27;20432;-81
2023/05/20 08:06:08;;;;;;;4.83;3.47;;;29.90;17.80;;;;;;5140316;27;20731;-81
2023/05/20 08:08:39;;;;;;;4.40;3.27;;;29.40;17.50;;;;;;5141100;27;20250;-82
2023/05/20 08:11:04;;;;;;;4.00;3.40;;;28.90;18.00;;;;;;5129204;27;20191;-81
2023/05/20 08:13:30;;;;;;;10.73;3.77;;;28.80;19.00;;;;;;5131771;27;20469;-81
2023/05/20 08:15:55;;;;;;;4.10;3.20;;;29.20;21.00;;;;;;5138909;27;20187;-82
2023/05/20 08:18:22;;;;;;;4.30;3.07;;;29.90;25.60;;;;;;5134582;27;20195;-82
2023/05/20 08:20:47;;;;;;;7.33;2.97;;;29.90;24.50;;;;;;5140228;27;20187;-82
2023/05/20 08:23:13;;;;;;;4.17;3.00;;;29.90;24.90;;;;;;5140981;27;20513;-80
2023/05/20 08:25:39;;;;;;;4.80;2.90;;;29.80;25.40;;;;;;5128788;27;20215;-80
2023/05/20 08:28:05;;;;;;;4.30;2.53;;;29.80;26.30;;;;;;5125587;28;20808;-79
2023/05/20 08:30:32;;;;;;;5.20;3.40;;;29.90;26.70;;;;;;5119586;27;20182;-82
2023/05/20 08:32:58;;;;;;;5.00;3.37;;;29.80;26.80;;;;;;5138597;27;20436;-82
2023/05/20 08:35:24;;;;;;;7.80;3.37;;;29.80;27.20;;;;;;5128867;28;20459;-80
2023/05/20 08:37:52;;;;;;;4.70;3.30;;;30.20;28.80;;;;;;5114611;28;20581;-82
2023/05/20 08:40:19;;;;;;;4.47;4.07;;;30.60;31.00;;;;;;5114490;28;20487;-83
2023/05/20 08:42:46;;;;;;;3.57;3.07;;;31.00;31.80;;;;;;5142971;27;20440;-82
2023/05/20 08:45:16;;;;;;;6.33;3.33;;;31.30;32.80;;;;;;5137512;27;20544;-80
2023/05/20 08:47:42;;;;;;;4.97;3.37;;;31.80;34.00;;;;;;5143569;27;20433;-82
2023/05/20 08:50:10;;;;;;;7.50;3.30;;;32.10;34.10;;;;;;5114096;28;20429;-82
2023/05/20 08:52:37;;;;;;;4.63;3.03;;;32.30;34.70;;;;;;5144027;28;20809;-82
2023/05/20 08:55:06;;;;;;;4.77;3.50;;;32.60;34.80;;;;;;5094801;28;20449;-82
2023/05/20 08:57:32;;;;;;;4.53;3.17;;;32.30;34.30;;;;;;5100086;28;20445;-82
2023/05/20 08:59:58;;;;;;;5.90;3.50;;;32.30;34.70;;;;;;5119224;28;20610;-83
2023/05/20 09:02:24;;;;;;;3.43;2.90;;;32.20;34.30;;;;;;5123060;28;20813;-81
2023/05/20 09:04:51;;;;;;;3.73;2.77;;;32.00;34.00;;;;;;5116103;28;20465;-83
2023/05/20 09:07:29;;;;;;;3.43;3.10;;;31.90;34.10;;;;;;5122134;28;20677;-81
2023/05/20 09:09:55;;;;;;;3.93;3.50;;;32.10;34.10;;;;;;5119951;28;20545;-82
2023/05/20 09:12:20;;;;;;;4.90;3.67;;;32.60;35.60;;;;;;5112891;28;20489;-83
2023/05/20 09:14:46;;;;;;;2.97;2.73;;;32.80;36.20;;;;;;5100141;28;20289;-84
2023/05/20 09:17:12;;;;;;;5.27;3.30;;;33.90;40.00;;;;;;5108764;28;20247;-84
2023/05/20 09:19:38;;;;;;;5.53;3.30;;;35.40;42.10;;;;;;5126252;28;20198;-83
2023/05/20 09:22:04;;;;;;;3.63;3.20;;;36.20;43.70;;;;;;5121986;28;20429;-83
2023/05/20 09:24:30;;;;;;;3.90;3.40;;;36.60;43.30;;;;;;5127081;28;20195;-83
2023/05/20 09:26:57;;;;;;;4.50;3.07;;;37.70;44.80;;;;;;5120849;28;20528;-83
2023/05/20 09:29:23;;;;;;;5.40;3.50;;;39.60;48.20;;;;;;5124729;28;20171;-83
2023/05/20 09:31:50;;;;;;;6.57;3.70;;;41.20;49.70;;;;;;5121090;28;20448;-84
2023/05/20 09:34:16;;;;;;;5.30;3.30;;;41.60;47.20;;;;;;5118386;28;20546;-83
2023/05/20 09:36:46;;;;;;;3.47;3.17;;;41.50;44.90;;;;;;5127114;28;20451;-84
2023/05/20 09:39:18;;;;;;;4.80;3.50;;;41.40;42.30;;;;;;5122363;28;20493;-84
2023/05/20 09:42:02;;;;;;;8.40;3.27;;;41.70;42.20;;;;;;5113004;28;20426;-83
2023/05/20 09:44:28;;;;;;;3.77;3.40;;;42.00;40.50;;;;;;5127974;28;20806;-83
2023/05/20 09:46:55;;;;;;;4.00;3.60;;;42.30;40.00;;;;;;5124039;28;21080;-83
2023/05/20 09:49:22;;;;;;;5.57;3.30;;;42.50;38.30;;;;;;5110820;28;20803;-84
2023/05/20 09:51:49;;;;;;;4.90;3.33;;;42.40;36.60;;;;;;5127121;28;20457;-84
2023/05/20 09:54:18;;;;;;;6.20;3.53;;;42.40;35.70;;;;;;5118516;28;21938;-83
2023/05/20 09:56:44;;;;;;;4.27;3.90;;;42.40;34.30;;;;;;5120144;28;20425;-84
2023/05/20 09:59:14;;;;;;;4.80;3.57;;;42.60;34.20;;;;;;5126507;28;21025;-83
2023/05/20 10:08:13;;;;;;;3.40;3.10;;;40.30;28.10;;;;;;5126389;28;20469;-83
2023/05/20 10:11:13;;;;;;;4.50;4.10;;;40.20;27.60;;;;;;5118164;28;20814;-84
2023/05/20 10:14:20;;;;;;;4.13;3.83;;;39.30;25.70;;;;;;5105933;28;20454;-82
2023/05/20 10:17:13;;;;;;;4.40;4.00;;;38.50;24.10;;;;;;5095278;28;20434;-85
2023/05/20 10:19:41;;;;;;;5.33;4.10;;;38.60;25.20;;;;;;5124484;28;20429;-85
2023/05/20 10:22:09;;;;;;;7.50;6.80;;;38.10;24.10;;;;;;5126800;28;20501;-84
2023/05/20 10:24:45;;;;;;;4.70;4.30;;;37.90;24.30;;;;;;5121159;28;20448;-85
2023/05/20 10:27:21;;;;;;;5.40;4.93;;;37.60;24.20;;;;;;5107112;28;20440;-84
2023/05/20 10:29:52;;;;;;;6.77;4.27;;;37.90;26.00;;;;;;5100397;28;20428;-85
2023/05/20 10:32:27;;;;;;;9.13;3.90;;;38.10;26.50;;;;;;5125504;28;20489;-85
2023/05/20 10:34:58;;;;;;;4.60;4.20;;;39.10;27.90;;;;;;5126717;28;20456;-85
2023/05/20 10:37:29;;;;;;;5.67;4.10;;;39.20;29.10;;;;;;5107993;28;20426;-86
2023/05/20 10:40:07;;;;;;;5.53;3.80;;;38.80;27.50;;;;;;5123484;28;20489;-85
2023/05/20 10:42:32;;;;;;;4.90;4.40;;;37.80;25.40;;;;;;5116808;28;20518;-85
2023/05/20 10:45:02;;;;;;;6.43;4.10;;;37.40;24.70;;;;;;5127245;28;20473;-86
2023/05/20 10:47:27;;;;;;;5.93;4.43;;;36.80;23.70;;;;;;5097682;28;20337;-85
2023/05/20 10:49:53;;;;;;;6.83;4.70;;;35.80;21.80;;;;;;5128290;28;20846;-84
2023/05/20 10:52:19;;;;;;;6.77;4.63;;;34.90;21.50;;;;;;5102489;28;21194;-84
2023/05/20 10:54:59;;;;;;;6.77;4.50;;;34.30;21.10;;;;;;5104912;28;20208;-84
2023/05/20 10:57:28;;;;;;;4.10;3.80;;;33.80;22.80;;;;;;5110246;28;20418;-85
2023/05/20 10:59:59;;;;;;;7.37;4.53;;;33.50;21.30;;;;;;5118463;28;20453;-84
2023/05/20 11:02:28;;;;;;;7.40;5.17;;;33.40;21.90;;;;;;5113752;28;20483;-84
2023/05/20 11:04:57;;;;;;;5.23;4.20;;;33.30;22.80;;;;;;5121439;28;20480;-83
2023/05/20 11:07:27;;;;;;;4.17;3.73;;;33.60;23.70;;;;;;5122734;28;20414;-83
2023/05/20 11:09:56;;;;;;;6.43;4.13;;;34.20;25.70;;;;;;5119998;28;20437;-83
2023/05/20 11:12:23;;;;;;;4.70;4.13;;;35.10;28.50;;;;;;5123183;28;20414;-85
2023/05/20 11:14:49;;;;;;;5.83;4.80;;;35.60;29.80;;;;;;5116018;28;20448;-85
2023/05/20 11:17:16;;;;;;;4.63;4.23;;;35.40;28.50;;;;;;5128298;28;20908;-87
2023/05/20 11:19:42;;;;;;;4.50;4.10;;;35.00;27.90;;;;;;5126826;28;20420;-84
2023/05/20 11:22:07;;;;;;;5.70;4.37;;;34.60;27.20;;;;;;5120839;28;20436;-84
2023/05/20 11:24:33;;;;;;;5.80;4.80;;;33.90;25.80;;;;;;5112689;28;20204;-84
2023/05/20 11:27:00;;;;;;;4.60;4.20;;;33.40;25.80;;;;;;5115518;28;20198;-81
2023/05/20 11:29:27;;;;;;;5.43;4.93;;;33.70;27.00;;;;;;5122207;28;20247;-81
2023/05/20 11:31:53;;;;;;;6.03;5.20;;;33.30;26.80;;;;;;5090284;28;20473;-81
2023/05/20 11:34:20;;;;;;;5.70;5.20;;;32.70;25.60;;;;;;5101773;28;21008;-81
2023/05/20 11:36:47;;;;;;;6.20;4.23;;;32.80;26.60;;;;;;5115530;28;20441;-81
2023/05/20 11:39:13;;;;;;;4.33;3.53;;;33.00;28.30;;;;;;5095360;28;20445;-82
2023/05/20 11:41:41;;;;;;;6.33;4.83;;;33.30;28.70;;;;;;5107984;28;20453;-81
2023/05/20 11:44:13;;;;;;;6.37;4.53;;;33.30;29.60;;;;;;5090825;28;20443;-79
2023/05/20 11:46:43;;;;;;;5.30;4.70;;;33.50;29.90;;;;;;5102013;28;20478;-79
2023/05/20 11:49:12;;;;;;;4.70;4.20;;;34.00;32.50;;;;;;5107630;28;20420;-80
2023/05/20 11:51:38;;;;;;;6.23;4.70;;;34.20;31.90;;;;;;5099191;28;20454;-81
2023/05/20 11:54:06;;;;;;;5.77;5.07;;;34.30;33.00;;;;;;5106621;28;20508;-84
2023/05/20 11:56:36;;;;;;;6.87;5.50;;;34.10;31.90;;;;;;5112962;28;20473;-83
2023/05/20 11:59:02;;;;;;;6.70;4.80;;;33.90;31.60;;;;;;5120191;28;21002;-83
2023/05/20 12:01:42;;;;;;;7.00;5.20;;;33.30;30.80;;;;;;5095295;28;20429;-83
2023/05/20 12:04:08;;;;;;;5.47;5.00;;;32.90;29.80;;;;;;5122089;27;20485;-83
2023/05/20 12:06:35;;;;;;;7.70;5.00;;;32.50;30.50;;;;;;5115174;28;20559;-84
2023/05/20 12:09:05;;;;;;;5.20;4.63;;;31.90;29.00;;;;;;5114913;28;20515;-84
2023/05/20 12:11:39;;;;;;;6.43;5.30;;;31.40;28.40;;;;;;5117821;28;20425;-83
2023/05/20 12:14:06;;;;;;;5.90;5.30;;;31.20;28.50;;;;;;5120869;28;20456;-82
2023/05/20 12:16:33;;;;;;;7.23;5.33;;;30.80;28.30;;;;;;5119599;28;20458;-83
2023/05/20 12:18:59;;;;;;;7.13;5.70;;;30.90;29.00;;;;;;5100197;28;20444;-84
2023/05/20 12:21:25;;;;;;;6.30;5.70;;;30.90;30.80;;;;;;5110952;28;20883;-84
2023/05/20 12:23:56;;;;;;;8.77;6.70;;;31.10;30.90;;;;;;5115408;28;20513;-84
2023/05/20 12:26:26;;;;;;;6.13;5.53;;;31.20;32.50;;;;;;5109069;28;20204;-83
2023/05/20 12:28:52;;;;;;;9.83;5.93;;;31.10;33.00;;;;;;5119361;28;20417;-84
2023/05/20 12:31:18;;;;;;;6.30;5.77;;;30.50;31.50;;;;;;5114615;28;20486;-84
2023/05/20 12:33:44;;;;;;;6.53;5.43;;;30.20;30.70;;;;;;5101504;28;20452;-84
2023/05/20 12:36:11;;;;;;;6.20;5.70;;;29.70;42.30;;;;;;5117034;28;20446;-84
2023/05/20 12:38:37;;;;;;;9.40;6.37;;;29.30;29.70;;;;;;5110933;28;20187;-83
2023/05/20 12:41:02;;;;;;;7.63;6.90;;;29.00;30.20;;;;;;5120792;28;20437;-85
2023/05/20 12:43:28;;;;;;;7.50;6.90;;;28.60;30.00;;;;;;5115624;28;20977;-84
2023/05/20 12:45:54;;;;;;;8.63;6.20;;;28.50;31.20;;;;;;5127594;28;20211;-83
2023/05/20 12:48:19;;;;;;;7.60;6.23;;;28.90;32.70;;;;;;5099630;28;20192;-84
2023/05/20 12:50:45;;;;;;;6.17;5.57;;;29.10;34.60;;;;;;5115700;28;20180;-81